Time;durP1;ratioP1;P1;durP2;ratioP2;P2;SDS_P1;SDS_P2;PMS_P1;PMS_P2;Temp;Humidity;BMP_temperature;BMP_pressure;BME280_temperature;BME280_humidity;BME280_pressure;Samples;Min_cycle;Max_cycle;Signal;HPM_P1;HPM_P2
2023/11/17 00:03:09;;;;;;;6.18;4.07;;;;;;;;;;10497561;28;20134;-77
2023/11/17 00:08:09;;;;;;;6.07;3.90;;;;;;;;;;10525813;28;20061;-76
2023/11/17 00:13:09;;;;;;;6.50;4.07;;;;;;;;;;10557363;28;20032;-78
2023/11/17 00:18:10;;;;;;;9.32;4.20;;;;;;;;;;10542662;28;20016;-77
2023/11/17 00:23:10;;;;;;;6.75;4.03;;;;;;;;;;10549427;28;20027;-78
2023/11/17 00:28:11;;;;;;;5.38;4.18;;;;;;;;;;10561608;28;20024;-77
2023/11/17 00:33:12;;;;;;;8.77;4.20;;;;;;;;;;10568400;28;20111;-77
2023/11/17 00:38:13;;;;;;;7.38;4.45;;;;;;;;;;10567134;28;20087;-77
2023/11/17 00:43:13;;;;;;;5.90;3.95;;;;;;;;;;10565271;28;20214;-77
2023/11/17 00:48:13;;;;;;;6.90;3.70;;;;;;;;;;10577316;28;20054;-77
2023/11/17 00:53:15;;;;;;;5.88;4.38;;;;;;;;;;10574549;28;20337;-77
2023/11/17 00:58:15;;;;;;;6.00;4.18;;;;;;;;;;10546554;28;20024;-77
2023/11/17 01:03:17;;;;;;;10.82;4.35;;;;;;;;;;10553352;28;20210;-77
2023/11/17 01:08:17;;;;;;;10.73;5.32;;;;;;;;;;10566010;28;20232;-77
2023/11/17 01:13:17;;;;;;;10.57;5.17;;;;;;;;;;10573218;28;20069;-78
2023/11/17 01:18:18;;;;;;;9.43;4.97;;;;;;;;;;10565094;28;20588;-78
2023/11/17 01:23:19;;;;;;;9.07;5.63;;;;;;;;;;10569006;28;20047;-78
2023/11/17 01:28:19;;;;;;;9.07;5.40;;;;;;;;;;10548465;28;20111;-77
2023/11/17 01:33:19;;;;;;;12.63;5.55;;;;;;;;;;10525974;28;20098;-77
2023/11/17 01:38:20;;;;;;;8.57;5.13;;;;;;;;;;10534798;28;20004;-77
2023/11/17 01:43:20;;;;;;;8.13;4.90;;;;;;;;;;10527137;28;20201;-77
2023/11/17 01:48:20;;;;;;;9.77;5.38;;;;;;;;;;10545681;28;20062;-78
2023/11/17 01:53:21;;;;;;;10.60;5.40;;;;;;;;;;10545487;28;20453;-77
2023/11/17 01:58:24;;;;;;;10.50;6.22;;;;;;;;;;10545246;28;20019;-77
2023/11/17 02:03:24;;;;;;;10.20;6.25;;;;;;;;;;10560795;28;20024;-77
2023/11/17 02:08:32;;;;;;;13.80;7.80;;;;;;;;;;10545099;28;20019;-77
2023/11/17 02:13:37;;;;;;;13.13;6.93;;;;;;;;;;10544941;28;20161;-77
2023/11/17 02:18:45;;;;;;;15.07;7.20;;;;;;;;;;10560057;28;20012;-77
2023/11/17 02:23:46;;;;;;;15.30;8.35;;;;;;;;;;10544160;28;20240;-77
2023/11/17 02:29:00;;;;;;;16.73;7.63;;;;;;;;;;10544066;28;20020;-73
2023/11/17 02:34:10;;;;;;;15.07;7.63;;;;;;;;;;10542791;28;20088;-75
2023/11/17 02:39:25;;;;;;;15.93;8.02;;;;;;;;;;10543115;28;20016;-73
2023/11/17 02:44:28;;;;;;;16.90;9.07;;;;;;;;;;10542184;28;20344;-74
2023/11/17 02:49:34;;;;;;;14.15;8.40;;;;;;;;;;10543001;28;20027;-73
2023/11/17 02:54:35;;;;;;;18.17;9.27;;;;;;;;;;10545166;28;20028;-73
2023/11/17 02:59:35;;;;;;;17.85;9.23;;;;;;;;;;10542502;28;20046;-73
2023/11/17 03:04:37;;;;;;;18.15;9.27;;;;;;;;;;10506409;28;20016;-75
2023/11/17 03:09:37;;;;;;;18.42;8.68;;;;;;;;;;10542304;28;20043;-74
2023/11/17 03:14:39;;;;;;;15.02;9.02;;;;;;;;;;10542100;28;20324;-75
2023/11/17 03:19:40;;;;;;;17.67;9.07;;;;;;;;;;10542290;28;20012;-75
2023/11/17 03:24:41;;;;;;;16.52;11.00;;;;;;;;;;10534463;28;20020;-74
2023/11/17 03:29:46;;;;;;;16.08;8.77;;;;;;;;;;10541731;28;20016;-75
2023/11/17 03:34:47;;;;;;;15.95;9.25;;;;;;;;;;10538215;28;20200;-75
2023/11/17 03:39:47;;;;;;;13.00;7.38;;;;;;;;;;10558066;28;20421;-75
2023/11/17 03:44:48;;;;;;;14.57;8.43;;;;;;;;;;10541326;28;20104;-75
2023/11/17 03:49:49;;;;;;;14.30;8.77;;;;;;;;;;10541553;28;20028;-75
2023/11/17 03:54:49;;;;;;;14.40;8.13;;;;;;;;;;10526777;28;20078;-75
2023/11/17 03:59:49;;;;;;;17.70;8.77;;;;;;;;;;10565368;27;20023;-75
2023/11/17 04:04:50;;;;;;;18.17;9.15;;;;;;;;;;10491354;28;20317;-75
2023/11/17 04:09:50;;;;;;;14.48;9.15;;;;;;;;;;10526618;28;20243;-76
2023/11/17 04:14:50;;;;;;;20.80;9.70;;;;;;;;;;10548876;28;20028;-76
2023/11/17 04:19:50;;;;;;;17.42;9.48;;;;;;;;;;10549109;28;20330;-76
2023/11/17 04:24:51;;;;;;;16.88;10.23;;;;;;;;;;10548312;28;20024;-76
2023/11/17 04:29:52;;;;;;;22.02;12.27;;;;;;;;;;10548569;28;20233;-75
2023/11/17 04:34:52;;;;;;;25.17;11.50;;;;;;;;;;10545182;28;20036;-74
2023/11/17 04:39:52;;;;;;;19.83;12.15;;;;;;;;;;10548225;28;20329;-75
2023/11/17 04:44:52;;;;;;;23.20;12.73;;;;;;;;;;10547867;28;20102;-76
2023/11/17 04:49:53;;;;;;;23.05;13.07;;;;;;;;;;10547545;28;20347;-75
2023/11/17 04:54:53;;;;;;;29.05;13.82;;;;;;;;;;10547416;28;21620;-75
2023/11/17 04:59:53;;;;;;;29.90;15.00;;;;;;;;;;10529019;28;20299;-75
2023/11/17 05:04:53;;;;;;;27.97;13.30;;;;;;;;;;10561326;28;20022;-75
2023/11/17 05:09:54;;;;;;;21.50;13.23;;;;;;;;;;10545820;28;20095;-75
2023/11/17 05:14:54;;;;;;;25.73;13.48;;;;;;;;;;10532629;28;20077;-75
2023/11/17 05:19:56;;;;;;;27.67;13.70;;;;;;;;;;10545846;28;20046;-74
2023/11/17 05:24:58;;;;;;;24.08;14.38;;;;;;;;;;10543726;28;20016;-74
2023/11/17 05:30:00;;;;;;;28.17;14.60;;;;;;;;;;10537476;28;20028;-74
2023/11/17 05:35:01;;;;;;;28.38;15.50;;;;;;;;;;10543821;28;20048;-73
2023/11/17 05:40:01;;;;;;;30.45;16.02;;;;;;;;;;10543794;28;20027;-74
2023/11/17 05:45:01;;;;;;;26.33;14.83;;;;;;;;;;10540747;28;20032;-74
2023/11/17 05:50:03;;;;;;;34.60;16.08;;;;;;;;;;10541848;28;20269;-75
2023/11/17 05:55:03;;;;;;;29.08;15.48;;;;;;;;;;10544855;28;20031;-74
2023/11/17 06:00:08;;;;;;;27.30;14.37;;;;;;;;;;10542081;28;20024;-74
2023/11/17 06:05:09;;;;;;;37.00;15.90;;;;;;;;;;10540164;28;20562;-73
2023/11/17 06:10:10;;;;;;;31.58;16.30;;;;;;;;;;10522534;28;20153;-73
2023/11/17 06:15:11;;;;;;;38.75;16.98;;;;;;;;;;10540087;28;20022;-73
2023/11/17 06:20:13;;;;;;;30.70;15.98;;;;;;;;;;10538167;28;20207;-74
2023/11/17 06:25:14;;;;;;;37.45;17.73;;;;;;;;;;10541712;28;20024;-74
2023/11/17 06:30:14;;;;;;;34.07;15.73;;;;;;;;;;10538760;28;20085;-74
2023/11/17 06:35:15;;;;;;;31.45;17.35;;;;;;;;;;10542078;28;20056;-75
2023/11/17 06:40:17;;;;;;;32.75;17.65;;;;;;;;;;10542785;28;20038;-74
2023/11/17 06:45:17;;;;;;;30.85;18.58;;;;;;;;;;10542670;28;20315;-74
2023/11/17 06:50:17;;;;;;;35.83;18.00;;;;;;;;;;10524226;28;20051;-73
2023/11/17 06:55:19;;;;;;;31.93;18.03;;;;;;;;;;10525727;28;20039;-73
2023/11/17 07:00:19;;;;;;;41.42;20.02;;;;;;;;;;10542065;28;20306;-74
2023/11/17 07:05:20;;;;;;;40.55;18.17;;;;;;;;;;10524089;28;20103;-74
2023/11/17 07:10:20;;;;;;;33.60;18.80;;;;;;;;;;10541852;28;20119;-73
2023/11/17 07:15:22;;;;;;;39.58;19.70;;;;;;;;;;10541565;28;20027;-74
2023/11/17 07:20:23;;;;;;;35.65;19.15;;;;;;;;;;10546939;28;20020;-74
2023/11/17 07:25:25;;;;;;;34.00;17.35;;;;;;;;;;10541597;28;20122;-75
2023/11/17 07:30:25;;;;;;;25.70;14.65;;;;;;;;;;10537875;28;20085;-75
2023/11/17 07:35:26;;;;;;;30.27;16.02;;;;;;;;;;10502736;28;20372;-77
2023/11/17 07:40:26;;;;;;;24.50;14.85;;;;;;;;;;10523731;28;20050;-74
2023/11/17 07:45:27;;;;;;;25.48;14.43;;;;;;;;;;10581660;28;20025;-74
2023/11/17 07:50:27;;;;;;;30.00;16.77;;;;;;;;;;10543056;28;20341;-74
2023/11/17 07:55:28;;;;;;;31.92;16.27;;;;;;;;;;10540941;28;20304;-75
2023/11/17 08:00:31;;;;;;;20.83;11.43;;;;;;;;;;10540364;28;20019;-70
2023/11/17 08:05:31;;;;;;;21.70;12.77;;;;;;;;;;10540977;28;20027;-75
2023/11/17 08:10:31;;;;;;;28.70;13.18;;;;;;;;;;10540867;28;20079;-73
2023/11/17 08:15:31;;;;;;;26.65;14.27;;;;;;;;;;10540087;28;20095;-69
2023/11/17 08:20:32;;;;;;;27.05;14.88;;;;;;;;;;10540541;28;20338;-73
2023/11/17 08:25:32;;;;;;;26.23;15.43;;;;;;;;;;10536658;28;20190;-75
2023/11/17 08:30:33;;;;;;;29.50;15.20;;;;;;;;;;10538474;28;20024;-73
2023/11/17 08:35:34;;;;;;;29.00;15.15;;;;;;;;;;10538320;28;20552;-73
2023/11/17 08:40:34;;;;;;;25.33;13.63;;;;;;;;;;10541468;28;20067;-73
2023/11/17 08:45:34;;;;;;;26.02;15.07;;;;;;;;;;10546025;28;20384;-74
2023/11/17 08:50:35;;;;;;;24.53;15.23;;;;;;;;;;10546449;28;20232;-73
2023/11/17 08:55:35;;;;;;;36.63;17.33;;;;;;;;;;10545201;28;20016;-74
2023/11/17 09:00:36;;;;;;;34.60;16.40;;;;;;;;;;10545885;28;20012;-73
2023/11/17 09:05:36;;;;;;;28.17;15.98;;;;;;;;;;10545274;28;20301;-70
2023/11/17 09:10:37;;;;;;;29.15;12.35;;;;;;;;;;10543085;28;20024;-70
2023/11/17 09:15:38;;;;;;;26.42;11.65;;;;;;;;;;10538729;28;20370;-71
2023/11/17 09:20:39;;;;;;;15.77;8.95;;;;;;;;;;10546348;28;20214;-70
2023/11/17 09:25:39;;;;;;;19.43;9.97;;;;;;;;;;10545248;28;20097;-71
2023/11/17 09:30:39;;;;;;;16.38;8.90;;;;;;;;;;10545503;28;20289;-70
2023/11/17 09:35:40;;;;;;;14.82;8.50;;;;;;;;;;10545345;28;20036;-70
2023/11/17 09:40:41;;;;;;;16.38;9.20;;;;;;;;;;10545043;28;20040;-70
2023/11/17 09:45:44;;;;;;;12.98;8.57;;;;;;;;;;10544842;28;20329;-71
2023/11/17 09:50:45;;;;;;;20.05;10.57;;;;;;;;;;10558779;28;20078;-71
2023/11/17 09:55:48;;;;;;;24.35;13.05;;;;;;;;;;10544181;28;20119;-70
2023/11/17 10:00:51;;;;;;;18.95;11.48;;;;;;;;;;10540185;28;20022;-70
2023/11/17 10:05:52;;;;;;;22.08;11.65;;;;;;;;;;10539290;28;20024;-70
2023/11/17 10:10:53;;;;;;;23.38;13.25;;;;;;;;;;10534657;28;20016;-70
2023/11/17 10:15:58;;;;;;;24.42;12.40;;;;;;;;;;10543418;28;20012;-71
2023/11/17 10:20:58;;;;;;;22.77;11.18;;;;;;;;;;10543414;28;20016;-70
2023/11/17 10:25:58;;;;;;;22.40;10.73;;;;;;;;;;10543126;28;20083;-70
2023/11/17 10:31:05;;;;;;;23.55;12.95;;;;;;;;;;10541567;28;20079;-70
2023/11/17 10:36:10;;;;;;;17.63;10.25;;;;;;;;;;10542951;28;20054;-70
2023/11/17 10:41:32;;;;;;;15.90;9.82;;;;;;;;;;10542476;28;20012;-71
2023/11/17 10:46:35;;;;;;;15.85;7.85;;;;;;;;;;10542142;28;20053;-71
2023/11/17 10:51:46;;;;;;;13.52;7.25;;;;;;;;;;10541883;28;20228;-71
2023/11/17 10:56:47;;;;;;;12.00;5.68;;;;;;;;;;10542086;28;20218;-70
2023/11/17 11:01:48;;;;;;;8.52;4.80;;;;;;;;;;10540173;28;20043;-70
2023/11/17 11:06:54;;;;;;;8.68;3.47;;;;;;;;;;10541432;28;20023;-71
2023/11/17 11:11:55;;;;;;;5.70;4.13;;;;;;;;;;10545191;28;20028;-71
2023/11/17 11:16:55;;;;;;;5.82;3.20;;;;;;;;;;10540903;28;20454;-71
2023/11/17 11:22:00;;;;;;;5.78;3.15;;;;;;;;;;10541143;28;20058;-71
2023/11/17 11:27:01;;;;;;;13.63;3.88;;;;;;;;;;10539706;28;20364;-70
2023/11/17 11:32:02;;;;;;;11.27;2.58;;;;;;;;;;10538918;28;20024;-71
2023/11/17 11:37:03;;;;;;;15.40;3.33;;;;;;;;;;10539785;28;20579;-71
2023/11/17 11:42:06;;;;;;;5.97;2.92;;;;;;;;;;10539382;28;20024;-70
2023/11/17 11:47:06;;;;;;;4.68;2.80;;;;;;;;;;10538509;28;20027;-69
2023/11/17 11:52:11;;;;;;;8.75;4.13;;;;;;;;;;10539203;28;20024;-70
2023/11/17 11:57:25;;;;;;;18.95;5.75;;;;;;;;;;10540266;28;20205;-71
2023/11/17 12:02:29;;;;;;;12.27;5.95;;;;;;;;;;10536479;28;20027;-71
2023/11/17 12:07:35;;;;;;;16.13;6.10;;;;;;;;;;10539477;28;20028;-72
2023/11/17 12:12:35;;;;;;;12.05;6.93;;;;;;;;;;10539091;28;20020;-71
2023/11/17 12:17:53;;;;;;;18.88;7.03;;;;;;;;;;10524689;28;20020;-70
2023/11/17 12:23:00;;;;;;;14.57;6.53;;;;;;;;;;10524584;28;20067;-70
2023/11/17 12:28:00;;;;;;;13.70;6.27;;;;;;;;;;10547426;28;20024;-71
2023/11/17 12:33:04;;;;;;;13.60;5.32;;;;;;;;;;10544968;28;20040;-70
2023/11/17 12:38:11;;;;;;;14.48;5.53;;;;;;;;;;10547417;28;20023;-69
2023/11/17 12:43:12;;;;;;;11.70;5.10;;;;;;;;;;10547389;28;20012;-70
2023/11/17 12:48:17;;;;;;;11.00;4.40;;;;;;;;;;10547157;28;20016;-70
2023/11/17 12:53:17;;;;;;;16.95;4.35;;;;;;;;;;10536513;28;20047;-69
2023/11/17 12:58:19;;;;;;;4.75;2.35;;;;;;;;;;10541447;28;20203;-70
2023/11/17 13:03:19;;;;;;;5.82;2.17;;;;;;;;;;10526722;28;20248;-70
2023/11/17 13:08:21;;;;;;;5.45;2.58;;;;;;;;;;10546135;28;20087;-70
2023/11/17 13:13:21;;;;;;;12.88;3.20;;;;;;;;;;10546370;28;20020;-69
2023/11/17 13:18:22;;;;;;;10.27;3.65;;;;;;;;;;10546206;28;20020;-71
2023/11/17 13:23:23;;;;;;;4.65;2.63;;;;;;;;;;10545969;28;20305;-70
2023/11/17 13:28:23;;;;;;;8.80;3.70;;;;;;;;;;10545540;28;20179;-69
2023/11/17 13:33:41;;;;;;;6.95;3.28;;;;;;;;;;10544954;28;20464;-72
2023/11/17 13:39:10;;;;;;;6.18;3.88;;;;;;;;;;10545110;28;20020;-70
2023/11/17 13:44:10;;;;;;;10.20;3.40;;;;;;;;;;10545096;28;20018;-70
2023/11/17 13:49:15;;;;;;;7.80;4.60;;;;;;;;;;10544860;28;20026;-70
2023/11/17 13:54:16;;;;;;;6.88;4.22;;;;;;;;;;10544423;28;20031;-69
2023/11/17 13:59:23;;;;;;;8.98;4.65;;;;;;;;;;10544632;28;20023;-70
2023/11/17 14:04:29;;;;;;;12.73;5.72;;;;;;;;;;10530030;28;20278;-69
2023/11/17 14:09:31;;;;;;;7.75;5.45;;;;;;;;;;10543631;28;20039;-69
2023/11/17 14:14:33;;;;;;;12.50;5.05;;;;;;;;;;10543308;28;20016;-69
2023/11/17 14:19:35;;;;;;;10.43;5.38;;;;;;;;;;10543024;28;20318;-70
2023/11/17 14:24:35;;;;;;;8.63;3.22;;;;;;;;;;10543157;28;20057;-69
2023/11/17 14:29:41;;;;;;;11.82;5.50;;;;;;;;;;10543370;28;20188;-70
2023/11/17 14:34:43;;;;;;;9.07;5.10;;;;;;;;;;10542009;28;20084;-69
2023/11/17 14:39:43;;;;;;;7.57;5.35;;;;;;;;;;10542232;28;20271;-69
2023/11/17 14:44:44;;;;;;;7.45;3.92;;;;;;;;;;10524474;28;20096;-70
2023/11/17 14:49:44;;;;;;;15.93;5.27;;;;;;;;;;10541722;28;20020;-69
2023/11/17 14:54:44;;;;;;;10.80;5.43;;;;;;;;;;10541738;28;20027;-70
2023/11/17 14:59:45;;;;;;;12.27;5.70;;;;;;;;;;10541812;28;20020;-69
2023/11/17 15:04:45;;;;;;;13.77;5.85;;;;;;;;;;10541343;28;20019;-70
2023/11/17 15:09:45;;;;;;;13.43;6.23;;;;;;;;;;10541140;28;20365;-69
2023/11/17 15:14:46;;;;;;;15.45;6.63;;;;;;;;;;10535747;28;20027;-69
2023/11/17 15:19:48;;;;;;;12.25;6.03;;;;;;;;;;10540123;28;20022;-69
2023/11/17 15:24:49;;;;;;;15.48;6.57;;;;;;;;;;10521576;28;20092;-70
2023/11/17 15:29:49;;;;;;;27.13;14.93;;;;;;;;;;10539793;28;20077;-70
2023/11/17 15:34:51;;;;;;;29.10;15.93;;;;;;;;;;10538596;28;20051;-69
2023/11/17 15:39:52;;;;;;;31.45;15.20;;;;;;;;;;10517150;28;20226;-69
2023/11/17 15:44:54;;;;;;;34.28;14.63;;;;;;;;;;10520604;28;20080;-69
2023/11/17 15:49:55;;;;;;;23.50;12.40;;;;;;;;;;10525082;28;20057;-69
2023/11/17 15:54:55;;;;;;;19.20;9.68;;;;;;;;;;10547878;28;20487;-69
2023/11/17 15:59:55;;;;;;;15.65;8.13;;;;;;;;;;10547628;28;20086;-69
2023/11/17 16:04:56;;;;;;;15.27;8.98;;;;;;;;;;10543446;28;20083;-70
2023/11/17 16:09:56;;;;;;;23.85;13.10;;;;;;;;;;10547120;28;20028;-68
2023/11/17 16:14:56;;;;;;;21.95;11.27;;;;;;;;;;10546975;28;20036;-70
2023/11/17 16:19:57;;;;;;;18.20;9.30;;;;;;;;;;10528739;28;20019;-70
2023/11/17 16:24:59;;;;;;;23.23;10.13;;;;;;;;;;10547153;28;20024;-70
2023/11/17 16:30:00;;;;;;;19.42;10.30;;;;;;;;;;10528325;28;20528;-70
2023/11/17 16:35:00;;;;;;;29.98;11.55;;;;;;;;;;10545055;28;20040;-70
2023/11/17 16:40:03;;;;;;;23.30;11.40;;;;;;;;;;10546371;28;20020;-71
2023/11/17 16:45:07;;;;;;;21.00;10.02;;;;;;;;;;10528024;28;20039;-72
2023/11/17 16:50:08;;;;;;;18.90;10.30;;;;;;;;;;10547389;28;20197;-71
2023/11/17 16:55:08;;;;;;;16.17;9.50;;;;;;;;;;10542098;28;20314;-70
2023/11/17 17:00:09;;;;;;;28.52;11.80;;;;;;;;;;10540445;28;20258;-72
2023/11/17 17:05:14;;;;;;;21.77;11.13;;;;;;;;;;10543592;28;20455;-72
2023/11/17 17:10:16;;;;;;;24.05;9.95;;;;;;;;;;10544897;28;20027;-73
2023/11/17 17:15:17;;;;;;;34.22;11.20;;;;;;;;;;10561072;28;20028;-70
2023/11/17 17:20:18;;;;;;;13.80;7.75;;;;;;;;;;10543358;28;20019;-70
2023/11/17 17:25:19;;;;;;;11.20;5.40;;;;;;;;;;10541823;28;20544;-66
2023/11/17 17:30:25;;;;;;;8.90;3.60;;;;;;;;;;10516490;28;20027;-69
2023/11/17 17:35:26;;;;;;;8.07;4.38;;;;;;;;;;10523325;28;20338;-69
2023/11/17 17:40:26;;;;;;;11.02;6.18;;;;;;;;;;10543385;28;20012;-69
2023/11/17 17:45:26;;;;;;;7.40;2.83;;;;;;;;;;10543895;28;20019;-68
2023/11/17 17:50:27;;;;;;;10.60;3.90;;;;;;;;;;10543814;28;20188;-69
2023/11/17 17:55:28;;;;;;;5.78;2.72;;;;;;;;;;10539904;28;20062;-69
2023/11/17 18:00:28;;;;;;;6.22;2.42;;;;;;;;;;10521017;28;20020;-69
2023/11/17 18:05:29;;;;;;;3.93;2.43;;;;;;;;;;10542572;28;20012;-70
2023/11/17 18:10:31;;;;;;;5.82;2.42;;;;;;;;;;10542279;28;20016;-70
2023/11/17 18:15:32;;;;;;;6.70;3.47;;;;;;;;;;10523542;28;20027;-70
2023/11/17 18:20:32;;;;;;;11.98;5.00;;;;;;;;;;10524269;28;20016;-69
2023/11/17 18:25:32;;;;;;;14.52;6.53;;;;;;;;;;10542003;28;20043;-69
2023/11/17 18:30:33;;;;;;;15.82;6.88;;;;;;;;;;10538993;28;20028;-69
2023/11/17 18:35:33;;;;;;;11.48;7.63;;;;;;;;;;10541546;28;20131;-70
2023/11/17 18:40:33;;;;;;;17.17;8.38;;;;;;;;;;10539853;28;20141;-70
2023/11/17 18:45:33;;;;;;;17.55;8.68;;;;;;;;;;10541505;28;20024;-70
2023/11/17 18:50:34;;;;;;;13.80;7.68;;;;;;;;;;10541053;28;20087;-69
2023/11/17 18:55:35;;;;;;;17.20;6.78;;;;;;;;;;10522649;28;20036;-70
2023/11/17 19:00:35;;;;;;;13.80;7.63;;;;;;;;;;10545285;28;20020;-69
2023/11/17 19:05:36;;;;;;;16.07;7.43;;;;;;;;;;10540848;28;20306;-70
2023/11/17 19:10:36;;;;;;;13.30;6.87;;;;;;;;;;10540492;28;20023;-69
2023/11/17 19:15:36;;;;;;;19.70;8.65;;;;;;;;;;10540443;28;20054;-69
2023/11/17 19:20:36;;;;;;;17.27;8.73;;;;;;;;;;10540156;28;20073;-69
2023/11/17 19:25:37;;;;;;;18.60;9.48;;;;;;;;;;10555214;28;20053;-71
2023/11/17 19:30:37;;;;;;;17.27;10.60;;;;;;;;;;10535377;28;20050;-69
2023/11/17 19:35:39;;;;;;;16.23;9.40;;;;;;;;;;10544478;28;20228;-69
2023/11/17 19:40:41;;;;;;;15.07;8.38;;;;;;;;;;10540590;28;20052;-70
2023/11/17 19:45:43;;;;;;;12.40;7.78;;;;;;;;;;10538155;28;20044;-68
2023/11/17 19:50:43;;;;;;;16.05;8.75;;;;;;;;;;10539309;28;20066;-71
2023/11/17 19:55:44;;;;;;;17.17;9.13;;;;;;;;;;10539164;28;20328;-71
2023/11/17 20:00:44;;;;;;;13.38;8.25;;;;;;;;;;10537539;28;20024;-71
2023/11/17 20:05:44;;;;;;;14.60;9.48;;;;;;;;;;10513459;28;20023;-70
2023/11/17 20:10:45;;;;;;;17.88;10.13;;;;;;;;;;10536020;28;20203;-71
2023/11/17 20:15:45;;;;;;;20.02;10.75;;;;;;;;;;10535953;28;20117;-71
2023/11/17 20:20:45;;;;;;;18.35;10.20;;;;;;;;;;10538496;28;20493;-71
2023/11/17 20:25:46;;;;;;;18.58;10.40;;;;;;;;;;10515175;28;20036;-70
2023/11/17 20:30:47;;;;;;;24.07;12.63;;;;;;;;;;10533750;28;20095;-71
2023/11/17 20:35:47;;;;;;;19.83;11.93;;;;;;;;;;10538221;28;20302;-70
2023/11/17 20:40:48;;;;;;;20.45;12.48;;;;;;;;;;10546265;28;20256;-70
2023/11/17 20:45:48;;;;;;;29.60;13.67;;;;;;;;;;10545879;28;20134;-70
2023/11/17 20:50:55;;;;;;;21.40;13.18;;;;;;;;;;10527530;28;20390;-70
2023/11/17 20:55:56;;;;;;;22.23;13.77;;;;;;;;;;10545496;28;20019;-69
2023/11/17 21:00:57;;;;;;;24.80;12.77;;;;;;;;;;10545151;28;20016;-70
2023/11/17 21:05:57;;;;;;;21.80;12.60;;;;;;;;;;10545240;28;20031;-70
2023/11/17 21:10:57;;;;;;;20.50;11.25;;;;;;;;;;10545152;28;20026;-70
2023/11/17 21:15:58;;;;;;;19.90;12.80;;;;;;;;;;10544515;28;20574;-71
2023/11/17 21:20:58;;;;;;;25.30;11.68;;;;;;;;;;10544522;28;20008;-71
2023/11/17 21:25:58;;;;;;;17.83;11.07;;;;;;;;;;10544655;28;20043;-70
2023/11/17 21:30:59;;;;;;;19.98;9.63;;;;;;;;;;10542869;28;20277;-70
2023/11/17 21:36:03;;;;;;;16.23;8.90;;;;;;;;;;10524042;28;20047;-69
2023/11/17 21:41:04;;;;;;;7.65;4.90;;;;;;;;;;10499588;28;20060;-71
2023/11/17 21:46:04;;;;;;;8.67;4.80;;;;;;;;;;10499681;28;20302;-70
2023/11/17 21:51:05;;;;;;;4.27;3.40;;;;;;;;;;10522529;28;20266;-69
2023/11/17 21:56:08;;;;;;;6.30;3.30;;;;;;;;;;10518228;28;20322;-69
2023/11/17 22:01:08;;;;;;;5.43;3.30;;;;;;;;;;10505512;28;20024;-70
2023/11/17 22:06:11;;;;;;;4.80;3.33;;;;;;;;;;10516085;28;20020;-70
2023/11/17 22:11:11;;;;;;;5.55;3.08;;;;;;;;;;10518136;28;20028;-70
2023/11/17 22:16:11;;;;;;;2.10;1.80;;;;;;;;;;10512732;28;20333;-69
2023/11/17 22:21:12;;;;;;;4.35;2.70;;;;;;;;;;10517320;28;20044;-70
2023/11/17 22:26:14;;;;;;;4.85;2.65;;;;;;;;;;10511966;28;20341;-67
2023/11/17 22:31:14;;;;;;;2.47;2.00;;;;;;;;;;10502554;28;20134;-72
2023/11/17 22:36:14;;;;;;;2.43;1.73;;;;;;;;;;10525207;28;20136;-72
2023/11/17 22:41:14;;;;;;;2.33;1.90;;;;;;;;;;10517825;28;20016;-71
2023/11/17 22:46:17;;;;;;;2.17;1.97;;;;;;;;;;10516077;28;20027;-70
2023/11/17 22:51:17;;;;;;;1.65;1.55;;;;;;;;;;10525538;28;20319;-71
2023/11/17 22:56:25;;;;;;;2.55;1.98;;;;;;;;;;10527215;28;20375;-71
2023/11/17 23:01:44;;;;;;;4.53;1.73;;;;;;;;;;10516163;28;20059;-71
2023/11/17 23:06:44;;;;;;;3.20;2.38;;;;;;;;;;10520420;28;20073;-71
2023/11/17 23:11:44;;;;;;;4.53;2.22;;;;;;;;;;10520915;28;20321;-71
2023/11/17 23:16:45;;;;;;;3.42;2.50;;;;;;;;;;10516387;28;20034;-71
2023/11/17 23:21:45;;;;;;;4.43;2.47;;;;;;;;;;10517226;28;20024;-72
2023/11/17 23:26:45;;;;;;;2.07;1.87;;;;;;;;;;10516519;28;20087;-72
2023/11/17 23:31:46;;;;;;;2.05;1.52;;;;;;;;;;10519013;28;20012;-71
2023/11/17 23:36:46;;;;;;;4.15;1.60;;;;;;;;;;10520227;28;20035;-72
2023/11/17 23:41:48;;;;;;;2.47;1.93;;;;;;;;;;10515863;28;20477;-71
2023/11/17 23:46:48;;;;;;;1.30;1.10;;;;;;;;;;10524407;28;20353;-71
2023/11/17 23:51:49;;;;;;;1.52;1.10;;;;;;;;;;10513966;28;20306;-71
2023/11/17 23:56:49;;;;;;;1.80;1.23;;;;;;;;;;10518759;28;20016;-71
